sensor_id;sensor_type;location;lat;lon;timestamp;pressure;altitude;pressure_sealevel;temperature;humidity
38786;BME280;24535;45.508;12.252;2023-02-18T00:00:38;102946.25;;;10.09;72.26
38786;BME280;24535;45.508;12.252;2023-02-18T00:03:03;102945.28;;;10.12;72.34
38786;BME280;24535;45.508;12.252;2023-02-18T00:05:28;102946.06;;;10.15;72.20
38786;BME280;24535;45.508;12.252;2023-02-18T00:07:54;102939.78;;;10.20;72.22
38786;BME280;24535;45.508;12.252;2023-02-18T00:10:19;102947.56;;;10.24;72.15
38786;BME280;24535;45.508;12.252;2023-02-18T00:12:45;102938.69;;;10.28;72.15
38786;BME280;24535;45.508;12.252;2023-02-18T00:15:11;102946.44;;;10.33;72.17
38786;BME280;24535;45.508;12.252;2023-02-18T00:17:36;102934.91;;;10.37;72.09
38786;BME280;24535;45.508;12.252;2023-02-18T00:20:03;102929.63;;;10.37;71.62
38786;BME280;24535;45.508;12.252;2023-02-18T00:22:29;102927.13;;;10.34;71.45
38786;BME280;24535;45.508;12.252;2023-02-18T00:24:54;102938.50;;;10.34;71.67
38786;BME280;24535;45.508;12.252;2023-02-18T00:27:21;102928.78;;;10.36;71.73
38786;BME280;24535;45.508;12.252;2023-02-18T00:29:46;102923.56;;;10.35;71.34
38786;BME280;24535;45.508;12.252;2023-02-18T00:32:12;102926.13;;;10.36;71.17
38786;BME280;24535;45.508;12.252;2023-02-18T00:34:37;102926.25;;;10.33;71.11
38786;BME280;24535;45.508;12.252;2023-02-18T00:37:03;102928.91;;;10.32;71.32
38786;BME280;24535;45.508;12.252;2023-02-18T00:39:29;102927.06;;;10.35;71.32
38786;BME280;24535;45.508;12.252;2023-02-18T00:41:54;102913.81;;;10.37;71.47
38786;BME280;24535;45.508;12.252;2023-02-18T00:44:20;102913.03;;;10.35;71.57
38786;BME280;24535;45.508;12.252;2023-02-18T00:46:45;102906.03;;;10.34;71.46
38786;BME280;24535;45.508;12.252;2023-02-18T00:49:12;102910.34;;;10.36;71.28
38786;BME280;24535;45.508;12.252;2023-02-18T00:51:39;102898.91;;;10.37;71.03
38786;BME280;24535;45.508;12.252;2023-02-18T00:54:05;102904.19;;;10.37;71.52
38786;BME280;24535;45.508;12.252;2023-02-18T00:56:31;102905.84;;;10.40;71.04
38786;BME280;24535;45.508;12.252;2023-02-18T00:58:56;102900.63;;;10.38;70.92
38786;BME280;24535;45.508;12.252;2023-02-18T01:01:22;102902.44;;;10.36;70.85
38786;BME280;24535;45.508;12.252;2023-02-18T01:03:48;102902.53;;;10.33;70.92
38786;BME280;24535;45.508;12.252;2023-02-18T01:06:14;102895.53;;;10.32;71.20
38786;BME280;24535;45.508;12.252;2023-02-18T01:08:40;102892.75;;;10.37;70.85
38786;BME280;24535;45.508;12.252;2023-02-18T01:11:08;102899.91;;;10.33;71.05
38786;BME280;24535;45.508;12.252;2023-02-18T01:13:34;102897.28;;;10.33;70.84
38786;BME280;24535;45.508;12.252;2023-02-18T01:16:00;102900.78;;;10.34;70.82
38786;BME280;24535;45.508;12.252;2023-02-18T01:18:26;102915.66;;;10.35;70.95
38786;BME280;24535;45.508;12.252;2023-02-18T01:20:51;102902.44;;;10.36;70.84
38786;BME280;24535;45.508;12.252;2023-02-18T01:23:17;102901.56;;;10.36;70.78
38786;BME280;24535;45.508;12.252;2023-02-18T01:25:43;102905.97;;;10.35;70.52
38786;BME280;24535;45.508;12.252;2023-02-18T01:28:10;102904.19;;;10.37;70.44
38786;BME280;24535;45.508;12.252;2023-02-18T01:30:36;102901.41;;;10.40;70.43
38786;BME280;24535;45.508;12.252;2023-02-18T01:33:02;102899.66;;;10.41;70.86
38786;BME280;24535;45.508;12.252;2023-02-18T01:35:28;102900.63;;;10.38;70.50
38786;BME280;24535;45.508;12.252;2023-02-18T01:37:53;102899.75;;;10.38;70.21
38786;BME280;24535;45.508;12.252;2023-02-18T01:40:24;102891.75;;;10.41;70.37
38786;BME280;24535;45.508;12.252;2023-02-18T01:42:49;102895.16;;;10.45;70.60
38786;BME280;24535;45.508;12.252;2023-02-18T01:45:39;102893.34;;;10.47;70.41
38786;BME280;24535;45.508;12.252;2023-02-18T01:48:17;102883.75;;;10.44;70.21
38786;BME280;24535;45.508;12.252;2023-02-18T01:50:56;102881.19;;;10.43;70.12
38786;BME280;24535;45.508;12.252;2023-02-18T01:53:35;102873.22;;;10.44;69.98
38786;BME280;24535;45.508;12.252;2023-02-18T01:56:02;102872.19;;;10.48;70.18
38786;BME280;24535;45.508;12.252;2023-02-18T01:58:29;102875.69;;;10.49;69.97
38786;BME280;24535;45.508;12.252;2023-02-18T02:00:55;102878.38;;;10.47;70.45
38786;BME280;24535;45.508;12.252;2023-02-18T02:03:21;102859.03;;;10.48;69.96
38786;BME280;24535;45.508;12.252;2023-02-18T02:05:46;102860.94;;;10.43;69.78
38786;BME280;24535;45.508;12.252;2023-02-18T02:08:12;102857.50;;;10.41;69.93
38786;BME280;24535;45.508;12.252;2023-02-18T02:13:23;102868.03;;;10.41;70.27
38786;BME280;24535;45.508;12.252;2023-02-18T02:16:08;102877.59;;;10.45;70.06
38786;BME280;24535;45.508;12.252;2023-02-18T02:24:48;102866.78;;;10.53;69.84
38786;BME280;24535;45.508;12.252;2023-02-18T02:41:33;102850.00;;;10.55;69.30
38786;BME280;24535;45.508;12.252;2023-02-18T02:46:27;102837.06;;;10.49;69.98
38786;BME280;24535;45.508;12.252;2023-02-18T02:51:29;102854.63;;;10.49;69.66
38786;BME280;24535;45.508;12.252;2023-02-18T02:54:10;102855.38;;;10.52;69.40
38786;BME280;24535;45.508;12.252;2023-02-18T02:56:37;102850.97;;;10.53;69.57
38786;BME280;24535;45.508;12.252;2023-02-18T02:59:05;102847.47;;;10.52;69.71
38786;BME280;24535;45.508;12.252;2023-02-18T03:12:18;102842.13;;;10.55;69.91
38786;BME280;24535;45.508;12.252;2023-02-18T03:17:38;102836.94;;;10.52;69.33
38786;BME280;24535;45.508;12.252;2023-02-18T03:20:09;102839.63;;;10.51;69.71
38786;BME280;24535;45.508;12.252;2023-02-18T03:22:40;102838.94;;;10.46;69.55
38786;BME280;24535;45.508;12.252;2023-02-18T03:25:11;102839.94;;;10.42;69.57
38786;BME280;24535;45.508;12.252;2023-02-18T03:30:15;102830.41;;;10.37;69.72
38786;BME280;24535;45.508;12.252;2023-02-18T03:32:41;102824.38;;;10.34;69.84
38786;BME280;24535;45.508;12.252;2023-02-18T03:35:15;102833.13;;;10.34;69.90
38786;BME280;24535;45.508;12.252;2023-02-18T03:37:51;102832.31;;;10.32;70.12
38786;BME280;24535;45.508;12.252;2023-02-18T03:40:18;102829.72;;;10.31;69.79
38786;BME280;24535;45.508;12.252;2023-02-18T03:42:44;102826.25;;;10.30;69.96
38786;BME280;24535;45.508;12.252;2023-02-18T03:45:09;102819.28;;;10.28;70.02
38786;BME280;24535;45.508;12.252;2023-02-18T03:47:35;102815.72;;;10.29;70.22
38786;BME280;24535;45.508;12.252;2023-02-18T03:50:00;102823.59;;;10.30;70.13
38786;BME280;24535;45.508;12.252;2023-02-18T03:52:26;102819.19;;;10.31;70.31
38786;BME280;24535;45.508;12.252;2023-02-18T03:54:52;102832.31;;;10.32;70.32
38786;BME280;24535;45.508;12.252;2023-02-18T03:57:17;102831.34;;;10.35;70.48
38786;BME280;24535;45.508;12.252;2023-02-18T03:59:43;102826.09;;;10.35;70.08
38786;BME280;24535;45.508;12.252;2023-02-18T04:02:08;102819.81;;;10.39;70.24
38786;BME280;24535;45.508;12.252;2023-02-18T04:04:34;102820.66;;;10.39;70.04
38786;BME280;24535;45.508;12.252;2023-02-18T04:06:59;102829.41;;;10.42;70.02
38786;BME280;24535;45.508;12.252;2023-02-18T04:09:25;102828.41;;;10.44;70.26
38786;BME280;24535;45.508;12.252;2023-02-18T04:11:50;102829.25;;;10.46;70.42
38786;BME280;24535;45.508;12.252;2023-02-18T04:14:16;102826.53;;;10.48;70.14
38786;BME280;24535;45.508;12.252;2023-02-18T04:16:41;102830.81;;;10.52;70.00
38786;BME280;24535;45.508;12.252;2023-02-18T04:19:07;102821.13;;;10.52;70.01
38786;BME280;24535;45.508;12.252;2023-02-18T04:21:32;102828.94;;;10.55;70.53
38786;BME280;24535;45.508;12.252;2023-02-18T04:23:59;102820.06;;;10.58;70.01
38786;BME280;24535;45.508;12.252;2023-02-18T04:26:24;102817.28;;;10.62;70.03
38786;BME280;24535;45.508;12.252;2023-02-18T04:28:49;102819.81;;;10.66;69.55
38786;BME280;24535;45.508;12.252;2023-02-18T04:31:15;102825.03;;;10.67;69.79
38786;BME280;24535;45.508;12.252;2023-02-18T04:33:41;102813.63;;;10.67;69.59
38786;BME280;24535;45.508;12.252;2023-02-18T04:36:06;102820.69;;;10.66;69.59
38786;BME280;24535;45.508;12.252;2023-02-18T04:38:32;102819.75;;;10.67;69.52
38786;BME280;24535;45.508;12.252;2023-02-18T04:40:57;102814.41;;;10.69;69.27
38786;BME280;24535;45.508;12.252;2023-02-18T04:43:23;102812.66;;;10.69;69.66
38786;BME280;24535;45.508;12.252;2023-02-18T04:45:48;102818.81;;;10.70;69.55
38786;BME280;24535;45.508;12.252;2023-02-18T04:48:14;102820.47;;;10.72;69.21
38786;BME280;24535;45.508;12.252;2023-02-18T04:50:39;102823.06;;;10.74;69.32
38786;BME280;24535;45.508;12.252;2023-02-18T04:53:04;102826.50;;;10.76;69.30
38786;BME280;24535;45.508;12.252;2023-02-18T04:55:30;102822.91;;;10.78;69.64
38786;BME280;24535;45.508;12.252;2023-02-18T04:57:55;102814.00;;;10.81;69.14
38786;BME280;24535;45.508;12.252;2023-02-18T05:00:21;102817.50;;;10.81;69.51
38786;BME280;24535;45.508;12.252;2023-02-18T05:02:46;102824.56;;;10.81;69.37
38786;BME280;24535;45.508;12.252;2023-02-18T05:05:12;102819.28;;;10.81;68.61
38786;BME280;24535;45.508;12.252;2023-02-18T05:07:38;102824.56;;;10.81;69.05
38786;BME280;24535;45.508;12.252;2023-02-18T05:10:04;102814.13;;;10.78;69.56
38786;BME280;24535;45.508;12.252;2023-02-18T05:12:30;102814.13;;;10.78;69.32
38786;BME280;24535;45.508;12.252;2023-02-18T05:14:56;102816.78;;;10.78;69.28
38786;BME280;24535;45.508;12.252;2023-02-18T05:17:21;102820.25;;;10.78;69.39
38786;BME280;24535;45.508;12.252;2023-02-18T05:19:46;102819.34;;;10.79;69.28
38786;BME280;24535;45.508;12.252;2023-02-18T05:22:12;102818.50;;;10.79;69.55
38786;BME280;24535;45.508;12.252;2023-02-18T05:24:37;102821.97;;;10.79;69.20
38786;BME280;24535;45.508;12.252;2023-02-18T05:27:03;102813.16;;;10.80;68.95
38786;BME280;24535;45.508;12.252;2023-02-18T05:29:28;102816.63;;;10.81;69.43
38786;BME280;24535;45.508;12.252;2023-02-18T05:31:53;102819.19;;;10.84;68.98
38786;BME280;24535;45.508;12.252;2023-02-18T05:34:19;102823.50;;;10.86;69.12
38786;BME280;24535;45.508;12.252;2023-02-18T05:36:44;102819.88;;;10.89;69.11
38786;BME280;24535;45.508;12.252;2023-02-18T05:39:10;102821.56;;;10.92;69.10
38786;BME280;24535;45.508;12.252;2023-02-18T05:41:35;102820.63;;;10.93;69.21
38786;BME280;24535;45.508;12.252;2023-02-18T05:44:00;102823.25;;;10.94;68.87
38786;BME280;24535;45.508;12.252;2023-02-18T05:46:44;102820.53;;;10.96;68.90
38786;BME280;24535;45.508;12.252;2023-02-18T05:49:10;102824.03;;;10.96;68.74
38786;BME280;24535;45.508;12.252;2023-02-18T05:51:35;102822.31;;;10.95;68.77
38786;BME280;24535;45.508;12.252;2023-02-18T05:54:01;102831.16;;;10.94;68.87
38786;BME280;24535;45.508;12.252;2023-02-18T05:56:26;102830.22;;;10.95;68.20
38786;BME280;24535;45.508;12.252;2023-02-18T05:58:52;102824.88;;;10.97;68.99
38786;BME280;24535;45.508;12.252;2023-02-18T06:01:17;102824.84;;;10.98;68.85
38786;BME280;24535;45.508;12.252;2023-02-18T06:03:42;102831.09;;;10.96;68.68
38786;BME280;24535;45.508;12.252;2023-02-18T06:06:08;102839.00;;;10.96;68.58
38786;BME280;24535;45.508;12.252;2023-02-18T06:08:33;102835.44;;;10.97;68.94
38786;BME280;24535;45.508;12.252;2023-02-18T06:10:59;102831.00;;;10.97;69.01
38786;BME280;24535;45.508;12.252;2023-02-18T06:13:25;102824.88;;;10.97;69.00
38786;BME280;24535;45.508;12.252;2023-02-18T06:15:50;102823.97;;;10.98;69.10
38786;BME280;24535;45.508;12.252;2023-02-18T06:18:16;102835.34;;;11.00;68.84
38786;BME280;24535;45.508;12.252;2023-02-18T06:20:42;102844.09;;;11.00;68.31
38786;BME280;24535;45.508;12.252;2023-02-18T06:23:07;102837.91;;;11.01;68.51
38786;BME280;24535;45.508;12.252;2023-02-18T06:25:32;102840.50;;;11.03;68.26
38786;BME280;24535;45.508;12.252;2023-02-18T06:27:58;102850.13;;;11.04;68.67
38786;BME280;24535;45.508;12.252;2023-02-18T06:30:23;102855.31;;;11.07;67.84
38786;BME280;24535;45.508;12.252;2023-02-18T06:32:49;102860.47;;;11.10;68.16
38786;BME280;24535;45.508;12.252;2023-02-18T06:35:14;102864.00;;;11.10;68.36
38786;BME280;24535;45.508;12.252;2023-02-18T06:37:39;102856.00;;;11.12;67.95
38786;BME280;24535;45.508;12.252;2023-02-18T06:40:05;102846.31;;;11.12;68.02
38786;BME280;24535;45.508;12.252;2023-02-18T06:42:31;102847.16;;;11.13;67.54
38786;BME280;24535;45.508;12.252;2023-02-18T06:44:56;102837.47;;;11.13;68.19
38786;BME280;24535;45.508;12.252;2023-02-18T06:47:22;102843.69;;;11.12;67.99
38786;BME280;24535;45.508;12.252;2023-02-18T06:49:47;102848.94;;;11.12;68.38
38786;BME280;24535;45.508;12.252;2023-02-18T06:52:13;102851.66;;;11.11;67.88
38786;BME280;24535;45.508;12.252;2023-02-18T06:54:38;102856.00;;;11.12;67.72
38786;BME280;24535;45.508;12.252;2023-02-18T06:57:04;102863.00;;;11.13;68.25
38786;BME280;24535;45.508;12.252;2023-02-18T06:59:29;102857.78;;;11.11;68.70
38786;BME280;24535;45.508;12.252;2023-02-18T07:01:55;102862.13;;;11.12;68.40
38786;BME280;24535;45.508;12.252;2023-02-18T07:04:20;102850.81;;;11.10;68.54
38786;BME280;24535;45.508;12.252;2023-02-18T07:06:46;102856.00;;;11.12;68.45
38786;BME280;24535;45.508;12.252;2023-02-18T07:09:11;102856.00;;;11.12;68.44
38786;BME280;24535;45.508;12.252;2023-02-18T07:11:36;102861.22;;;11.13;68.20
38786;BME280;24535;45.508;12.252;2023-02-18T07:14:02;102862.91;;;11.16;67.94
38786;BME280;24535;45.508;12.252;2023-02-18T07:16:27;102862.91;;;11.16;68.25
38786;BME280;24535;45.508;12.252;2023-02-18T07:18:53;102864.69;;;11.16;68.71
38786;BME280;24535;45.508;12.252;2023-02-18T07:21:18;102861.97;;;11.17;68.51
38786;BME280;24535;45.508;12.252;2023-02-18T07:23:43;102861.09;;;11.18;68.15
38786;BME280;24535;45.508;12.252;2023-02-18T07:26:11;102866.22;;;11.21;68.47
38786;BME280;24535;45.508;12.252;2023-02-18T07:28:38;102868.00;;;11.21;67.98
38786;BME280;24535;45.508;12.252;2023-02-18T07:31:04;102861.72;;;11.25;68.55
38786;BME280;24535;45.508;12.252;2023-02-18T07:33:30;102865.16;;;11.27;68.46
38786;BME280;24535;45.508;12.252;2023-02-18T07:35:58;102874.78;;;11.28;68.43
38786;BME280;24535;45.508;12.252;2023-02-18T07:38:30;102866.88;;;11.28;68.41
38786;BME280;24535;45.508;12.252;2023-02-18T07:40:57;102863.22;;;11.32;68.22
38786;BME280;24535;45.508;12.252;2023-02-18T07:43:22;102866.78;;;11.31;68.35
38786;BME280;24535;45.508;12.252;2023-02-18T07:45:48;102876.31;;;11.35;67.90
38786;BME280;24535;45.508;12.252;2023-02-18T07:48:15;102884.09;;;11.38;67.58
38786;BME280;24535;45.508;12.252;2023-02-18T07:50:42;102877.97;;;11.37;68.08
38786;BME280;24535;45.508;12.252;2023-02-18T07:53:08;102877.09;;;11.37;67.80
38786;BME280;24535;45.508;12.252;2023-02-18T07:55:35;102880.59;;;11.37;67.46
38786;BME280;24535;45.508;12.252;2023-02-18T07:58:18;102879.63;;;11.40;67.81
38786;BME280;24535;45.508;12.252;2023-02-18T08:00:43;102882.28;;;11.40;67.48
38786;BME280;24535;45.508;12.252;2023-02-18T08:03:09;102884.00;;;11.41;67.99
38786;BME280;24535;45.508;12.252;2023-02-18T08:05:35;102889.25;;;11.43;67.21
38786;BME280;24535;45.508;12.252;2023-02-18T08:08:00;102889.16;;;11.44;67.57
38786;BME280;24535;45.508;12.252;2023-02-18T08:10:25;102889.16;;;11.44;67.43
38786;BME280;24535;45.508;12.252;2023-02-18T08:12:51;102890.03;;;11.45;68.17
38786;BME280;24535;45.508;12.252;2023-02-18T08:15:16;102884.75;;;11.45;67.26
38786;BME280;24535;45.508;12.252;2023-02-18T08:17:42;102889.06;;;11.47;67.53
38786;BME280;24535;45.508;12.252;2023-02-18T08:20:08;102889.06;;;11.47;68.03
38786;BME280;24535;45.508;12.252;2023-02-18T08:22:35;102880.31;;;11.45;67.50
38786;BME280;24535;45.508;12.252;2023-02-18T08:25:00;102885.56;;;11.47;67.74
38786;BME280;24535;45.508;12.252;2023-02-18T08:27:25;102884.56;;;11.49;67.85
38786;BME280;24535;45.508;12.252;2023-02-18T08:29:51;102874.94;;;11.48;67.63
38786;BME280;24535;45.508;12.252;2023-02-18T08:32:16;102878.44;;;11.49;67.78
38786;BME280;24535;45.508;12.252;2023-02-18T08:34:42;102879.25;;;11.51;68.21
38786;BME280;24535;45.508;12.252;2023-02-18T08:37:07;102881.09;;;11.49;67.81
38786;BME280;24535;45.508;12.252;2023-02-18T08:39:37;102880.22;;;11.48;67.87
38786;BME280;24535;45.508;12.252;2023-02-18T08:42:03;102876.75;;;11.46;68.13
38786;BME280;24535;45.508;12.252;2023-02-18T08:44:29;102873.25;;;11.46;68.07
38786;BME280;24535;45.508;12.252;2023-02-18T08:46:54;102883.78;;;11.47;67.91
38786;BME280;24535;45.508;12.252;2023-02-18T08:49:22;102876.72;;;11.48;68.03
38786;BME280;24535;45.508;12.252;2023-02-18T08:51:51;102880.13;;;11.51;68.21
38786;BME280;24535;45.508;12.252;2023-02-18T08:54:17;102880.13;;;11.51;68.31
38786;BME280;24535;45.508;12.252;2023-02-18T08:56:42;102872.13;;;11.53;68.07
38786;BME280;24535;45.508;12.252;2023-02-18T08:59:08;102873.84;;;11.54;68.37
38786;BME280;24535;45.508;12.252;2023-02-18T09:01:34;102866.78;;;11.54;67.50
38786;BME280;24535;45.508;12.252;2023-02-18T09:03:59;102860.63;;;11.55;67.92
38786;BME280;24535;45.508;12.252;2023-02-18T09:06:25;102858.84;;;11.56;68.77
38786;BME280;24535;45.508;12.252;2023-02-18T09:08:51;102856.94;;;11.59;67.67
38786;BME280;24535;45.508;12.252;2023-02-18T09:11:17;102864.78;;;11.61;67.72
38786;BME280;24535;45.508;12.252;2023-02-18T09:13:43;102855.94;;;11.62;67.30
38786;BME280;24535;45.508;12.252;2023-02-18T09:16:15;102855.91;;;11.63;67.76
38786;BME280;24535;45.508;12.252;2023-02-18T09:18:43;102849.72;;;11.64;67.77
38786;BME280;24535;45.508;12.252;2023-02-18T09:21:11;102849.63;;;11.66;67.11
38786;BME280;24535;45.508;12.252;2023-02-18T09:23:38;102855.75;;;11.68;68.10
38786;BME280;24535;45.508;12.252;2023-02-18T09:26:09;102855.63;;;11.71;67.54
38786;BME280;24535;45.508;12.252;2023-02-18T09:28:35;102852.06;;;11.72;67.70
38786;BME280;24535;45.508;12.252;2023-02-18T09:31:10;102842.25;;;11.76;68.15
38786;BME280;24535;45.508;12.252;2023-02-18T09:33:38;102853.78;;;11.73;67.96
38786;BME280;24535;45.508;12.252;2023-02-18T09:36:04;102853.66;;;11.76;67.48
38786;BME280;24535;45.508;12.252;2023-02-18T09:38:30;102852.75;;;11.77;67.55
38786;BME280;24535;45.508;12.252;2023-02-18T09:40:56;102845.75;;;11.76;67.98
38786;BME280;24535;45.508;12.252;2023-02-18T09:43:32;102835.97;;;11.78;68.17
38786;BME280;24535;45.508;12.252;2023-02-18T09:46:00;102838.56;;;11.80;67.88
38786;BME280;24535;45.508;12.252;2023-02-18T09:48:30;102842.84;;;11.82;67.77
38786;BME280;24535;45.508;12.252;2023-02-18T09:50:56;102844.63;;;11.83;68.43
38786;BME280;24535;45.508;12.252;2023-02-18T09:53:23;102839.34;;;11.83;68.11
38786;BME280;24535;45.508;12.252;2023-02-18T09:55:51;102848.06;;;11.85;68.17
38786;BME280;24535;45.508;12.252;2023-02-18T09:58:20;102843.63;;;11.86;67.95
38786;BME280;24535;45.508;12.252;2023-02-18T10:01:14;102850.59;;;11.88;67.34
38786;BME280;24535;45.508;12.252;2023-02-18T10:03:41;102848.91;;;11.86;67.73
38786;BME280;24535;45.508;12.252;2023-02-18T10:06:16;102848.81;;;11.89;67.13
38786;BME280;24535;45.508;12.252;2023-02-18T10:08:45;102856.72;;;11.89;67.72
38786;BME280;24535;45.508;12.252;2023-02-18T10:11:14;102856.63;;;11.92;67.73
38786;BME280;24535;45.508;12.252;2023-02-18T10:13:41;102857.47;;;11.93;66.99
38786;BME280;24535;45.508;12.252;2023-02-18T10:16:07;102861.91;;;11.92;67.71
38786;BME280;24535;45.508;12.252;2023-02-18T10:18:39;102863.69;;;11.92;67.00
38786;BME280;24535;45.508;12.252;2023-02-18T10:21:09;102854.84;;;11.93;67.31
38786;BME280;24535;45.508;12.252;2023-02-18T10:23:39;102857.41;;;11.94;67.88
38786;BME280;24535;45.508;12.252;2023-02-18T10:26:10;102848.63;;;11.94;67.33
38786;BME280;24535;45.508;12.252;2023-02-18T10:28:37;102841.56;;;11.94;67.06
38786;BME280;24535;45.508;12.252;2023-02-18T10:31:05;102846.00;;;11.94;66.91
38786;BME280;24535;45.508;12.252;2023-02-18T10:44:47;102852.00;;;11.97;66.27
38786;BME280;24535;45.508;12.252;2023-02-18T10:53:02;102845.69;;;12.01;66.34
38786;BME280;24535;45.508;12.252;2023-02-18T10:55:41;102847.41;;;12.02;65.71
38786;BME280;24535;45.508;12.252;2023-02-18T10:58:29;102842.94;;;12.04;65.78
38786;BME280;24535;45.508;12.252;2023-02-18T11:00:55;102837.66;;;12.04;65.63
38786;BME280;24535;45.508;12.252;2023-02-18T11:03:25;102842.00;;;12.05;66.79
38786;BME280;24535;45.508;12.252;2023-02-18T11:05:54;102839.38;;;12.05;66.63
38786;BME280;24535;45.508;12.252;2023-02-18T11:08:26;102837.53;;;12.07;66.29
38786;BME280;24535;45.508;12.252;2023-02-18T11:10:53;102832.19;;;12.09;66.69
38786;BME280;24535;45.508;12.252;2023-02-18T11:13:25;102824.19;;;12.10;66.59
38786;BME280;24535;45.508;12.252;2023-02-18T11:15:58;102813.59;;;12.12;66.51
38786;BME280;24535;45.508;12.252;2023-02-18T11:21:01;102802.88;;;12.15;65.78
38786;BME280;24535;45.508;12.252;2023-02-18T11:23:27;102798.47;;;12.16;65.99
38786;BME280;24535;45.508;12.252;2023-02-18T11:25:57;102792.25;;;12.17;66.13
38786;BME280;24535;45.508;12.252;2023-02-18T11:28:48;102787.75;;;12.19;65.19
38786;BME280;24535;45.508;12.252;2023-02-18T11:31:21;102792.00;;;12.23;65.42
38786;BME280;24535;45.508;12.252;2023-02-18T11:33:51;102779.63;;;12.23;65.19
38786;BME280;24535;45.508;12.252;2023-02-18T11:36:23;102776.09;;;12.24;64.10
38786;BME280;24535;45.508;12.252;2023-02-18T11:39:01;102766.31;;;12.26;64.18
38786;BME280;24535;45.508;12.252;2023-02-18T11:41:36;102768.09;;;12.26;65.75
38786;BME280;24535;45.508;12.252;2023-02-18T11:44:20;102756.59;;;12.27;64.87
38786;BME280;24535;45.508;12.252;2023-02-18T11:47:26;102755.69;;;12.28;64.54
38786;BME280;24535;45.508;12.252;2023-02-18T11:52:38;102744.13;;;12.30;64.84
38786;BME280;24535;45.508;12.252;2023-02-18T11:55:10;102737.13;;;12.29;64.75
38786;BME280;24535;45.508;12.252;2023-02-18T11:57:41;102735.25;;;12.31;64.49
38786;BME280;24535;45.508;12.252;2023-02-18T12:03:02;102728.22;;;12.32;64.44
38786;BME280;24535;45.508;12.252;2023-02-18T12:05:35;102725.63;;;12.30;64.93
38786;BME280;24535;45.508;12.252;2023-02-18T12:10:40;102714.06;;;12.33;64.03
38786;BME280;24535;45.508;12.252;2023-02-18T12:13:22;102714.91;;;12.33;63.61
38786;BME280;24535;45.508;12.252;2023-02-18T12:16:05;102714.84;;;12.35;64.37
38786;BME280;24535;45.508;12.252;2023-02-18T12:21:37;102714.78;;;12.36;63.35
38786;BME280;24535;45.508;12.252;2023-02-18T12:32:39;102700.72;;;12.36;64.13
38786;BME280;24535;45.508;12.252;2023-02-18T12:35:36;102699.00;;;12.35;63.67
38786;BME280;24535;45.508;12.252;2023-02-18T12:38:13;102699.06;;;12.33;64.70
38786;BME280;24535;45.508;12.252;2023-02-18T12:40:56;102687.63;;;12.33;63.60
38786;BME280;24535;45.508;12.252;2023-02-18T12:46:33;102688.50;;;12.33;63.65
38786;BME280;24535;45.508;12.252;2023-02-18T13:00:22;102679.63;;;12.34;63.66
38786;BME280;24535;45.508;12.252;2023-02-18T13:03:19;102674.34;;;12.34;63.26
38786;BME280;24535;45.508;12.252;2023-02-18T13:14:23;102657.31;;;12.42;63.40
38786;BME280;24535;45.508;12.252;2023-02-18T13:16:54;102658.25;;;12.41;63.49
38786;BME280;24535;45.508;12.252;2023-02-18T13:19:26;102650.31;;;12.41;62.81
38786;BME280;24535;45.508;12.252;2023-02-18T13:21:57;102647.66;;;12.41;62.39
38786;BME280;24535;45.508;12.252;2023-02-18T13:24:32;102644.00;;;12.43;62.86
38786;BME280;24535;45.508;12.252;2023-02-18T13:30:21;102633.44;;;12.43;61.92
38786;BME280;24535;45.508;12.252;2023-02-18T13:40:39;102628.97;;;12.45;63.71
38786;BME280;24535;45.508;12.252;2023-02-18T13:46:07;102622.72;;;12.46;62.96
38786;BME280;24535;45.508;12.252;2023-02-18T13:51:16;102611.22;;;12.47;63.58
38786;BME280;24535;45.508;12.252;2023-02-18T13:53:49;102613.88;;;12.47;62.95
38786;BME280;24535;45.508;12.252;2023-02-18T13:56:28;102608.44;;;12.50;62.75
38786;BME280;24535;45.508;12.252;2023-02-18T13:58:59;102598.69;;;12.52;62.57
38786;BME280;24535;45.508;12.252;2023-02-18T14:01:44;102598.69;;;12.52;62.28
38786;BME280;24535;45.508;12.252;2023-02-18T14:07:26;102589.75;;;12.55;62.17
38786;BME280;24535;45.508;12.252;2023-02-18T14:09:55;102587.09;;;12.55;62.61
38786;BME280;24535;45.508;12.252;2023-02-18T14:17:49;102588.03;;;12.54;62.26
38786;BME280;24535;45.508;12.252;2023-02-18T14:22:48;102579.16;;;12.55;62.10
38786;BME280;24535;45.508;12.252;2023-02-18T14:27:49;102573.03;;;12.54;62.59
38786;BME280;24535;45.508;12.252;2023-02-18T14:30:19;102566.88;;;12.54;62.50
38786;BME280;24535;45.508;12.252;2023-02-18T14:32:50;102576.59;;;12.53;62.60
38786;BME280;24535;45.508;12.252;2023-02-18T14:46:18;102567.81;;;12.53;62.15
38786;BME280;24535;45.508;12.252;2023-02-18T14:51:56;102556.44;;;12.51;62.56
38786;BME280;24535;45.508;12.252;2023-02-18T14:54:24;102569.66;;;12.51;62.14
38786;BME280;24535;45.508;12.252;2023-02-18T14:56:57;102554.72;;;12.50;62.51
38786;BME280;24535;45.508;12.252;2023-02-18T14:59:50;102546.88;;;12.48;62.20
38786;BME280;24535;45.508;12.252;2023-02-18T15:02:25;102549.56;;;12.47;61.96
38786;BME280;24535;45.508;12.252;2023-02-18T15:04:52;102551.31;;;12.48;62.63
38786;BME280;24535;45.508;12.252;2023-02-18T15:07:20;102550.44;;;12.47;62.13
38786;BME280;24535;45.508;12.252;2023-02-18T15:09:53;102548.66;;;12.48;62.35
38786;BME280;24535;45.508;12.252;2023-02-18T15:12:21;102547.00;;;12.45;62.05
38786;BME280;24535;45.508;12.252;2023-02-18T15:14:50;102548.66;;;12.48;62.46
38786;BME280;24535;45.508;12.252;2023-02-18T15:17:25;102538.00;;;12.49;61.59